createdAt,value
2023-04-01T00:00:14.603Z,63.89
2023-04-01T00:02:42.777Z,63.51
2023-04-01T00:05:13.862Z,63.89
2023-04-01T00:07:41.840Z,63.27
2023-04-01T00:10:11.818Z,62.79
2023-04-01T00:12:39.726Z,62.99
2023-04-01T00:15:10.559Z,63.18
2023-04-01T00:17:39.454Z,63.37
2023-04-01T00:20:08.928Z,63.72
2023-04-01T00:22:36.547Z,63.53
2023-04-01T00:25:05.564Z,63.56
2023-04-01T00:27:32.928Z,63.64
2023-04-01T00:30:00.459Z,63.38
2023-04-01T00:32:28.265Z,63.27
2023-04-01T00:34:55.676Z,63.20
2023-04-01T00:37:23.873Z,63.97
2023-04-01T00:39:51.530Z,63.80
2023-04-01T00:42:19.222Z,63.51
2023-04-01T00:44:51.141Z,63.38
2023-04-01T00:47:19.605Z,63.43
2023-04-01T00:49:50.033Z,63.58
2023-04-01T00:52:20.648Z,63.89
2023-04-01T00:54:50.650Z,64.33
2023-04-01T00:57:23.042Z,64.31
2023-04-01T00:59:53.672Z,64.52
2023-04-01T01:02:21.586Z,64.29
2023-04-01T01:04:49.156Z,64.63
2023-04-01T01:07:31.868Z,64.82
2023-04-01T01:10:14.430Z,64.40
2023-04-01T01:12:47.725Z,64.35
2023-04-01T01:15:21.525Z,64.40
2023-04-01T01:18:10.657Z,63.68
2023-04-01T01:20:49.609Z,64.41
2023-04-01T01:23:54.833Z,63.72
2023-04-01T01:26:27.297Z,63.84
2023-04-01T01:29:17.020Z,64.40
2023-04-01T01:31:47.416Z,64.72
2023-04-01T01:34:48.507Z,64.47
2023-04-01T01:37:17.984Z,64.71
2023-04-01T01:39:54.208Z,64.21
2023-04-01T01:42:22.373Z,64.57
2023-04-01T01:44:51.292Z,64.26
2023-04-01T01:47:20.860Z,63.88
2023-04-01T01:49:48.469Z,63.77
2023-04-01T01:52:18.163Z,63.84
2023-04-01T01:54:56.627Z,64.05
2023-04-01T01:57:29.652Z,63.80
2023-04-01T02:00:09.359Z,63.96
2023-04-01T02:02:45.419Z,63.41
2023-04-01T02:05:19.748Z,63.32
2023-04-01T02:07:52.158Z,63.82
2023-04-01T02:10:20.946Z,63.41
2023-04-01T02:12:49.203Z,63.43
2023-04-01T02:15:17.640Z,63.01
2023-04-01T02:17:46.984Z,63.39
2023-04-01T02:20:18.815Z,63.48
2023-04-01T02:22:49.941Z,63.51
2023-04-01T02:25:22.049Z,63.51
2023-04-01T02:27:49.779Z,63.56
2023-04-01T02:30:18.407Z,63.58
2023-04-01T02:32:47.107Z,63.12
2023-04-01T02:35:17.188Z,63.45
2023-04-01T02:37:45.425Z,63.21
2023-04-01T02:40:15.448Z,63.46
2023-04-01T02:42:43.200Z,63.18
2023-04-01T02:45:11.537Z,62.72
2023-04-01T02:47:39.387Z,62.80
2023-04-01T02:50:08.330Z,62.72
2023-04-01T02:52:35.950Z,62.76
2023-04-01T02:55:04.276Z,62.35
2023-04-01T02:57:31.946Z,62.04
2023-04-01T02:59:59.364Z,61.90
2023-04-01T03:02:27.849Z,61.71
2023-04-01T03:04:55.362Z,62.62
2023-04-01T03:07:22.774Z,63.13
2023-04-01T03:09:50.679Z,62.78
2023-04-01T03:12:18.099Z,63.47
2023-04-01T03:14:45.863Z,63.55
2023-04-01T03:17:13.567Z,63.45
2023-04-01T03:19:41.028Z,63.81
2023-04-01T03:22:11.021Z,63.29
2023-04-01T03:24:38.723Z,63.37
2023-04-01T03:27:06.109Z,63.48
2023-04-01T03:29:33.534Z,63.01
2023-04-01T03:32:01.496Z,62.39
2023-04-01T03:34:28.938Z,62.84
2023-04-01T03:36:56.568Z,62.16
2023-04-01T03:39:24.335Z,61.60
2023-04-01T03:41:51.908Z,61.63
2023-04-01T03:44:19.306Z,61.34
2023-04-01T03:46:47.290Z,62.10
2023-04-01T03:49:16.035Z,61.97
2023-04-01T03:51:44.069Z,62.46
2023-04-01T03:54:12.314Z,61.78
2023-04-01T03:56:39.994Z,62.11
2023-04-01T03:59:08.464Z,61.93
2023-04-01T04:01:36.522Z,61.94
2023-04-01T04:04:04.570Z,61.72
2023-04-01T04:06:32.095Z,61.81
2023-04-01T04:08:59.531Z,61.76
2023-04-01T04:11:27.705Z,61.74
2023-04-01T04:13:56.514Z,62.00
2023-04-01T04:16:24.717Z,62.08
2023-04-01T04:18:53.486Z,61.96
2023-04-01T04:21:20.900Z,62.23
2023-04-01T04:23:48.330Z,62.48
2023-04-01T04:26:16.478Z,62.59
2023-04-01T04:28:45.721Z,62.33
2023-04-01T04:31:13.701Z,62.31
2023-04-01T04:33:42.373Z,62.33
2023-04-01T04:36:10.191Z,62.34
2023-04-01T04:38:37.630Z,62.38
2023-04-01T04:41:10.758Z,62.18
2023-04-01T04:43:38.438Z,62.28
2023-04-01T04:46:08.534Z,61.87
2023-04-01T04:48:36.428Z,62.53
2023-04-01T04:51:04.260Z,62.28
2023-04-01T04:53:32.251Z,63.19
2023-04-01T04:55:59.646Z,63.45
2023-04-01T04:58:27.733Z,63.06
2023-04-01T05:00:55.887Z,63.20
2023-04-01T05:03:23.846Z,63.01
2023-04-01T05:05:53.289Z,63.01
2023-04-01T05:08:21.169Z,63.75
2023-04-01T05:10:48.714Z,63.50
2023-04-01T05:13:16.289Z,62.54
2023-04-01T05:15:46.624Z,62.48
2023-04-01T05:18:14.232Z,62.27
2023-04-01T05:20:47.738Z,61.26
2023-04-01T05:23:15.732Z,61.55
2023-04-01T05:25:43.431Z,62.37
2023-04-01T05:28:10.846Z,62.92
2023-04-01T05:30:42.075Z,61.88
2023-04-01T05:33:11.042Z,61.91
2023-04-01T05:35:38.824Z,61.80
2023-04-01T05:38:08.142Z,61.86
2023-04-01T05:40:36.479Z,62.73
2023-04-01T05:43:04.700Z,62.45
2023-04-01T05:45:32.445Z,62.24
2023-04-01T05:48:07.471Z,62.08
2023-04-01T05:50:35.509Z,62.74
2023-04-01T05:53:03.497Z,63.28
2023-04-01T05:55:30.999Z,62.74
2023-04-01T05:57:59.046Z,62.82
2023-04-01T06:00:28.099Z,63.20
2023-04-01T06:02:56.321Z,62.65
2023-04-01T06:05:26.407Z,63.66
2023-04-01T06:08:11.176Z,63.34
2023-04-01T06:10:54.428Z,62.63
2023-04-01T06:13:27.637Z,62.18
2023-04-01T06:16:08.887Z,62.21
2023-04-01T06:18:39.380Z,62.68
2023-04-01T06:21:33.168Z,63.58
2023-04-01T06:24:04.005Z,63.62
2023-04-01T06:26:38.907Z,63.42
2023-04-01T06:29:19.912Z,62.82
2023-04-01T06:31:54.024Z,62.50
2023-04-01T06:34:33.540Z,61.07
2023-04-01T06:37:36.461Z,60.93
2023-04-01T06:40:07.437Z,60.55
2023-04-01T06:42:50.744Z,61.25
2023-04-01T06:45:45.688Z,61.20
2023-04-01T06:49:23.603Z,60.96
2023-04-01T06:52:12.558Z,61.59
2023-04-01T06:55:08.773Z,60.04
2023-04-01T06:57:43.673Z,60.82
2023-04-01T07:00:25.635Z,58.91
2023-04-01T07:03:04.925Z,60.58
2023-04-01T07:05:35.510Z,61.62
2023-04-01T07:08:07.394Z,60.46
2023-04-01T07:10:52.776Z,60.12
2023-04-01T07:13:32.012Z,60.87
2023-04-01T07:16:05.520Z,60.36
2023-04-01T07:18:40.401Z,60.46
2023-04-01T07:21:16.008Z,59.31
2023-04-01T07:23:46.070Z,59.29
2023-04-01T07:26:22.348Z,58.92
2023-04-01T07:28:54.119Z,59.39
2023-04-01T07:31:44.409Z,60.21
2023-04-01T07:34:25.468Z,59.61
2023-04-01T07:37:14.416Z,59.21
2023-04-01T07:39:42.263Z,59.11
2023-04-01T07:42:40.010Z,57.49
2023-04-01T07:45:14.049Z,56.89
2023-04-01T07:48:21.034Z,60.38
2023-04-01T07:51:08.748Z,56.76
2023-04-01T07:54:10.994Z,57.67
2023-04-01T07:56:44.345Z,56.98
2023-04-01T07:59:12.704Z,56.90
2023-04-01T08:01:57.088Z,55.89
2023-04-01T08:04:30.637Z,55.28
2023-04-01T08:07:18.389Z,54.27
2023-04-01T08:09:59.379Z,56.73
2023-04-01T08:13:05.461Z,56.27
2023-04-01T08:15:48.416Z,55.43
2023-04-01T08:18:28.285Z,54.60
2023-04-01T08:20:59.641Z,55.87
2023-04-01T08:23:29.702Z,55.35
2023-04-01T08:26:04.356Z,54.59
2023-04-01T08:28:40.913Z,55.11
2023-04-01T08:31:24.094Z,53.21
2023-04-01T08:33:54.486Z,54.03
2023-04-01T08:36:32.757Z,54.69
2023-04-01T08:39:16.407Z,54.25
2023-04-01T08:42:09.799Z,53.84
2023-04-01T08:45:06.436Z,54.96
2023-04-01T08:47:38.192Z,54.20
2023-04-01T08:50:22.908Z,52.67
2023-04-01T08:53:07.613Z,53.05
2023-04-01T08:56:02.455Z,52.40
2023-04-01T08:58:58.211Z,53.45
2023-04-01T09:01:40.790Z,52.92
2023-04-01T09:04:21.853Z,52.89
2023-04-01T09:06:57.374Z,53.58
2023-04-01T09:09:31.108Z,52.86
2023-04-01T09:12:21.036Z,52.25
2023-04-01T09:15:04.247Z,52.83
2023-04-01T09:18:01.170Z,51.80
2023-04-01T09:20:33.455Z,52.44
2023-04-01T09:23:26.493Z,53.30
2023-04-01T09:25:56.799Z,53.93
2023-04-01T09:28:45.738Z,52.87
2023-04-01T09:31:38.392Z,50.89
2023-04-01T09:34:31.677Z,51.70
2023-04-01T09:37:11.268Z,51.81
2023-04-01T09:39:46.122Z,52.77
2023-04-01T09:42:14.407Z,51.59
2023-04-01T09:44:55.644Z,51.38
2023-04-01T09:47:48.233Z,50.79
2023-04-01T09:50:33.034Z,51.17
2023-04-01T09:53:25.903Z,52.16
2023-04-01T09:56:22.005Z,50.76
2023-04-01T09:59:08.004Z,52.58
2023-04-01T10:02:05.711Z,51.23
2023-04-01T10:04:53.320Z,52.78
2023-04-01T10:07:44.501Z,51.36
2023-04-01T10:10:34.719Z,52.76
2023-04-01T10:13:17.632Z,52.28
2023-04-01T10:16:23.741Z,52.61
2023-04-01T10:19:31.767Z,51.67
2023-04-01T10:21:59.674Z,52.97
2023-04-01T10:24:51.311Z,51.84
2023-04-01T10:27:40.322Z,51.52
2023-04-01T10:30:38.579Z,51.90
2023-04-01T10:33:28.475Z,51.40
2023-04-01T10:36:02.065Z,50.81
2023-04-01T10:38:46.685Z,49.33
2023-04-01T10:41:31.388Z,50.37
2023-04-01T10:44:08.501Z,50.33
2023-04-01T10:46:49.093Z,49.61
2023-04-01T10:49:24.048Z,49.41
2023-04-01T10:52:20.389Z,49.33
2023-04-01T10:55:20.189Z,49.29
2023-04-01T10:58:13.538Z,49.13
2023-04-01T11:00:50.301Z,49.12
2023-04-01T11:03:55.997Z,49.53
2023-04-01T11:06:58.568Z,49.91
2023-04-01T11:09:50.977Z,49.07
2023-04-01T11:13:00.033Z,48.94
2023-04-01T11:15:40.477Z,49.49
2023-04-01T11:18:46.078Z,47.47
2023-04-01T11:21:45.951Z,48.71
2023-04-01T11:24:16.975Z,48.22
2023-04-01T11:26:51.278Z,47.45
2023-04-01T11:29:57.017Z,47.43
2023-04-01T11:32:56.207Z,45.53
2023-04-01T11:35:27.350Z,45.82
2023-04-01T11:38:31.931Z,44.74
2023-04-01T11:41:19.931Z,46.01
2023-04-01T11:44:04.534Z,46.32
2023-04-01T11:47:09.839Z,45.30
2023-04-01T11:49:48.832Z,45.19
2023-04-01T11:52:19.707Z,44.86
2023-04-01T11:55:06.137Z,46.10
2023-04-01T11:57:51.917Z,44.65
2023-04-01T12:00:34.704Z,46.23
2023-04-01T12:03:27.472Z,45.34
2023-04-01T12:06:31.568Z,45.31
2023-04-01T12:09:37.509Z,44.86
2023-04-01T12:12:12.185Z,44.79
2023-04-01T12:14:55.173Z,45.64
2023-04-01T12:17:25.985Z,45.53
2023-04-01T12:20:03.525Z,46.02
2023-04-01T12:22:44.474Z,44.73
2023-04-01T12:25:38.245Z,44.42
2023-04-01T12:28:31.105Z,43.47
2023-04-01T12:31:14.027Z,44.42
2023-04-01T12:33:53.825Z,44.22
2023-04-01T12:36:46.402Z,43.92
2023-04-01T12:39:51.456Z,45.40
2023-04-01T12:42:33.917Z,44.93
2023-04-01T12:45:20.436Z,44.83
2023-04-01T12:47:54.177Z,45.48
2023-04-01T12:50:49.344Z,47.01
2023-04-01T12:53:22.366Z,47.06
2023-04-01T12:55:53.726Z,46.45
2023-04-01T12:58:49.304Z,46.72
2023-04-01T13:01:58.232Z,46.26
2023-04-01T13:04:44.398Z,44.96
2023-04-01T13:07:17.651Z,46.39
2023-04-01T13:09:58.710Z,45.52
2023-04-01T13:12:43.356Z,45.72
2023-04-01T13:15:29.358Z,43.17
2023-04-01T13:18:27.836Z,44.24
2023-04-01T13:21:14.788Z,43.48
2023-04-01T13:24:04.126Z,42.47
2023-04-01T13:26:43.366Z,44.19
2023-04-01T13:29:18.701Z,42.92
2023-04-01T13:32:33.300Z,43.00
2023-04-01T13:35:26.526Z,43.56
2023-04-01T13:38:05.731Z,43.44
2023-04-01T13:41:14.766Z,42.91
2023-04-01T13:43:52.119Z,42.88
2023-04-01T13:46:34.623Z,45.19
2023-04-01T13:49:21.164Z,44.42
2023-04-01T13:52:06.135Z,45.49
2023-04-01T13:54:54.654Z,44.43
2023-04-01T13:57:38.658Z,45.46
2023-04-01T14:00:41.084Z,47.15
2023-04-01T14:03:17.470Z,48.70
2023-04-01T14:06:06.483Z,49.65
2023-04-01T14:08:51.015Z,51.88
2023-04-01T14:11:31.524Z,50.18
2023-04-01T14:14:17.369Z,50.79
2023-04-01T14:16:59.716Z,49.66
2023-04-01T14:19:38.189Z,48.58
2023-04-01T14:22:27.515Z,49.59
2023-04-01T14:25:16.027Z,49.83
2023-04-01T14:28:05.101Z,49.46
2023-04-01T14:30:36.594Z,48.12
2023-04-01T14:33:24.158Z,47.65
2023-04-01T14:36:36.342Z,46.42
2023-04-01T14:39:31.761Z,47.50
2023-04-01T14:42:21.957Z,47.60
2023-04-01T14:45:11.724Z,46.00
2023-04-01T14:47:59.985Z,45.92
2023-04-01T14:50:40.929Z,45.00
2023-04-01T14:53:08.729Z,46.26
2023-04-01T14:55:49.403Z,45.45
2023-04-01T14:58:19.167Z,45.74
2023-04-01T15:00:58.587Z,46.69
2023-04-01T15:04:01.540Z,46.38
2023-04-01T15:06:41.623Z,46.40
2023-04-01T15:09:15.553Z,46.43
2023-04-01T15:11:54.773Z,45.86
2023-04-01T15:14:39.616Z,46.57
2023-04-01T15:17:26.322Z,46.82
2023-04-01T15:20:04.140Z,48.60
2023-04-01T15:23:02.806Z,47.58
2023-04-01T15:25:50.995Z,49.10
2023-04-01T15:28:21.452Z,48.66
2023-04-01T15:30:58.429Z,49.25
2023-04-01T15:33:29.028Z,48.17
2023-04-01T15:36:27.563Z,46.59
2023-04-01T15:39:03.645Z,45.33
2023-04-01T15:41:49.637Z,44.14
2023-04-01T15:44:43.409Z,44.67
2023-04-01T15:47:26.636Z,44.50
2023-04-01T15:50:17.182Z,43.20
2023-04-01T15:52:59.844Z,43.64
2023-04-01T15:55:52.441Z,44.37
2023-04-01T15:58:36.261Z,42.89
2023-04-01T16:01:06.625Z,44.20
2023-04-01T16:03:37.319Z,44.20
2023-04-01T16:06:23.513Z,43.67
2023-04-01T16:09:17.608Z,43.69
2023-04-01T16:11:55.755Z,43.79
2023-04-01T16:14:32.463Z,42.86
2023-04-01T16:17:10.241Z,43.88
2023-04-01T16:19:43.929Z,43.52
2023-04-01T16:22:32.922Z,42.78
2023-04-01T16:25:22.547Z,43.87
2023-04-01T16:28:13.929Z,43.08
2023-04-01T16:31:28.273Z,43.03
2023-04-01T16:34:05.550Z,43.83
2023-04-01T16:36:55.266Z,42.49
2023-04-01T16:39:47.522Z,42.96
2023-04-01T16:42:34.160Z,42.12
2023-04-01T16:45:07.984Z,43.67
2023-04-01T16:47:51.596Z,44.75
2023-04-01T16:50:24.705Z,44.08
2023-04-01T16:53:04.448Z,45.19
2023-04-01T16:55:54.363Z,43.80
2023-04-01T16:58:26.778Z,44.10
2023-04-01T17:01:08.285Z,43.29
2023-04-01T17:03:38.567Z,44.03
2023-04-01T17:06:12.356Z,45.18
2023-04-01T17:08:42.428Z,46.48
2023-04-01T17:11:20.539Z,46.25
2023-04-01T17:13:56.359Z,46.73
2023-04-01T17:16:43.505Z,47.41
2023-04-01T17:19:26.479Z,47.16
2023-04-01T17:22:35.168Z,48.05
2023-04-01T17:25:22.230Z,48.22
2023-04-01T17:27:50.717Z,48.77
2023-04-01T17:30:42.722Z,48.76
2023-04-01T17:33:37.389Z,49.04
2023-04-01T17:36:36.984Z,49.31
2023-04-01T17:39:21.261Z,49.49
2023-04-01T17:41:59.156Z,49.98
2023-04-01T17:45:08.966Z,49.58
2023-04-01T17:47:59.812Z,49.80
2023-04-01T17:51:07.822Z,50.04
2023-04-01T17:53:53.147Z,49.51
2023-04-01T17:56:51.332Z,49.63
2023-04-01T17:59:41.537Z,50.33
2023-04-01T18:02:31.053Z,50.17
2023-04-01T18:05:25.216Z,50.88
2023-04-01T18:08:07.363Z,50.54
2023-04-01T18:10:46.362Z,51.00
2023-04-01T18:13:45.081Z,50.75
2023-04-01T18:16:39.827Z,51.43
2023-04-01T18:19:15.758Z,51.13
2023-04-01T18:21:48.501Z,50.81
2023-04-01T18:24:37.768Z,50.87
2023-04-01T18:27:19.790Z,51.17
2023-04-01T18:30:12.915Z,51.17
2023-04-01T18:32:58.419Z,51.54
2023-04-01T18:36:00.456Z,51.46
2023-04-01T18:38:31.269Z,51.61
2023-04-01T18:41:22.715Z,52.21
2023-04-01T18:44:01.598Z,52.11
2023-04-01T18:46:59.209Z,52.23
2023-04-01T18:49:53.753Z,52.34
2023-04-01T18:52:36.368Z,52.55
2023-04-01T18:55:05.277Z,52.74
2023-04-01T18:57:44.027Z,52.59
2023-04-01T19:00:27.444Z,53.05
2023-04-01T19:03:04.444Z,53.25
2023-04-01T19:05:36.554Z,53.07
2023-04-01T19:08:21.937Z,53.26
2023-04-01T19:11:12.523Z,53.43
2023-04-01T19:14:06.325Z,53.45
2023-04-01T19:16:43.182Z,53.36
2023-04-01T19:19:32.142Z,53.43
2023-04-01T19:22:56.387Z,53.31
2023-04-01T19:26:01.711Z,53.47
2023-04-01T19:28:52.371Z,53.47
2023-04-01T19:31:58.008Z,54.01
2023-04-01T19:34:29.679Z,53.58
2023-04-01T19:37:05.198Z,54.52
2023-04-01T19:39:40.342Z,54.51
2023-04-01T19:42:31.383Z,54.70
2023-04-01T19:45:27.191Z,54.44
2023-04-01T19:48:16.038Z,54.53
2023-04-01T19:51:22.052Z,54.22
2023-04-01T19:54:03.443Z,54.65
2023-04-01T19:57:01.984Z,54.94
2023-04-01T19:59:41.811Z,54.84
2023-04-01T20:02:12.701Z,55.29
2023-04-01T20:04:49.224Z,55.11
2023-04-01T20:07:25.511Z,55.21
2023-04-01T20:10:16.249Z,55.13
2023-04-01T20:13:26.976Z,55.40
2023-04-01T20:16:08.093Z,55.89
2023-04-01T20:18:43.356Z,56.70
2023-04-01T20:21:17.384Z,56.37
2023-04-01T20:23:52.048Z,56.19
2023-04-01T20:26:28.180Z,56.52
2023-04-01T20:29:25.010Z,56.46
2023-04-01T20:32:05.145Z,55.88
2023-04-01T20:35:01.601Z,55.79
2023-04-01T20:37:43.170Z,56.29
2023-04-01T20:41:04.185Z,56.58
2023-04-01T20:43:42.662Z,56.58
2023-04-01T20:46:13.448Z,56.37
2023-04-01T20:49:13.579Z,56.56
2023-04-01T20:51:48.935Z,55.94
2023-04-01T20:54:23.984Z,56.56
2023-04-01T20:57:03.824Z,56.49
2023-04-01T20:59:59.515Z,57.09
2023-04-01T21:02:58.353Z,57.58
2023-04-01T21:06:03.784Z,57.51
2023-04-01T21:08:37.471Z,57.38
2023-04-01T21:11:21.653Z,57.20
2023-04-01T21:14:01.208Z,57.51
2023-04-01T21:16:48.541Z,57.88
2023-04-01T21:19:19.037Z,57.50
2023-04-01T21:22:05.355Z,56.34
2023-04-01T21:25:12.948Z,56.89
2023-04-01T21:27:49.035Z,56.16
2023-04-01T21:30:24.443Z,57.38
2023-04-01T21:33:01.410Z,57.78
2023-04-01T21:36:02.017Z,55.98
2023-04-01T21:39:03.649Z,57.31
2023-04-01T21:41:55.544Z,56.70
2023-04-01T21:44:47.844Z,56.93
2023-04-01T21:47:36.845Z,58.00
2023-04-01T21:50:41.881Z,57.31
2023-04-01T21:53:50.719Z,55.63
2023-04-01T21:56:31.089Z,55.65
2023-04-01T21:59:04.230Z,55.75
2023-04-01T22:01:53.930Z,56.33
2023-04-01T22:05:17.357Z,55.67
2023-04-01T22:07:50.853Z,55.98
2023-04-01T22:10:46.985Z,55.75
2023-04-01T22:13:21.944Z,56.06
2023-04-01T22:16:18.258Z,56.00
2023-04-01T22:19:01.089Z,56.12
2023-04-01T22:22:02.130Z,56.42
2023-04-01T22:24:42.185Z,56.28
2023-04-01T22:27:22.902Z,56.50
2023-04-01T22:29:50.218Z,56.58
2023-04-01T22:32:23.878Z,57.40
2023-04-01T22:35:02.982Z,57.99
2023-04-01T22:37:59.989Z,57.68
2023-04-01T22:40:38.488Z,57.29
2023-04-01T22:43:13.747Z,58.04
2023-04-01T22:45:56.770Z,57.50
2023-04-01T22:48:33.936Z,57.96
2023-04-01T22:51:16.438Z,58.87
2023-04-01T22:54:07.179Z,58.85
2023-04-01T22:56:40.967Z,58.39
2023-04-01T22:59:11.494Z,58.69
2023-04-01T23:01:47.632Z,58.99
2023-04-01T23:04:18.543Z,58.34
2023-04-01T23:06:50.650Z,58.15
2023-04-01T23:09:21.130Z,58.25
2023-04-01T23:11:58.970Z,58.25
2023-04-01T23:14:34.648Z,58.70
2023-04-01T23:17:17.290Z,59.90
2023-04-01T23:20:01.102Z,59.36
2023-04-01T23:22:28.404Z,58.17
2023-04-01T23:25:26.255Z,58.37
2023-04-01T23:28:18.918Z,59.34
2023-04-01T23:30:48.412Z,60.24
2023-04-01T23:33:27.948Z,60.11
2023-04-01T23:36:07.725Z,59.88
2023-04-01T23:38:37.691Z,61.17
2023-04-01T23:41:06.496Z,61.04
2023-04-01T23:43:39.593Z,61.90
2023-04-01T23:46:08.652Z,61.09
2023-04-01T23:48:40.261Z,61.53
2023-04-01T23:51:22.461Z,62.47
2023-04-01T23:54:02.808Z,62.44
2023-04-01T23:56:43.701Z,62.05
2023-04-01T23:59:25.474Z,61.70
